Time;durP1;ratioP1;P1;durP2;ratioP2;P2;SDS_P1;SDS_P2;PMS_P1;PMS_P2;Temp;Humidity;BMP_temperature;BMP_pressure;BME280_temperature;BME280_humidity;BME280_pressure;Samples;Min_cycle;Max_cycle;Signal;HPM_P1;HPM_P2
2022/03/05 00:00:25;;;;;;;23.75;10.80;;;;;;;;;;4973195;28;20034;-91
2022/03/05 00:02:50;;;;;;;23.80;9.25;;;;;;;;;;4974222;28;20074;-87
2022/03/05 00:05:16;;;;;;;22.77;10.27;;;;;;;;;;4990129;28;20486;-87
2022/03/05 00:07:41;;;;;;;22.02;10.43;;;;;;;;;;4990560;28;20026;-88
2022/03/05 00:10:09;;;;;;;20.42;9.73;;;;;;;;;;4978244;28;20061;-90
2022/03/05 00:12:34;;;;;;;21.10;10.50;;;;;;;;;;4989216;28;20109;-90
2022/03/05 00:15:00;;;;;;;22.90;10.60;;;;;;;;;;4976299;28;20117;-90
2022/03/05 00:17:26;;;;;;;21.27;10.73;;;;;;;;;;4974559;28;20031;-88
2022/03/05 00:19:53;;;;;;;21.90;11.10;;;;;;;;;;4974764;28;20098;-88
2022/03/05 00:22:19;;;;;;;20.77;9.38;;;;;;;;;;4973048;28;20034;-88
2022/03/05 00:24:45;;;;;;;23.73;10.05;;;;;;;;;;4974303;28;20034;-91
2022/03/05 00:27:10;;;;;;;23.35;11.40;;;;;;;;;;4974495;28;20032;-86
2022/03/05 00:29:38;;;;;;;20.88;10.00;;;;;;;;;;4973479;28;20038;-90
2022/03/05 00:32:04;;;;;;;19.27;9.60;;;;;;;;;;4971718;28;20061;-86
2022/03/05 00:34:29;;;;;;;22.35;10.52;;;;;;;;;;4973029;28;20062;-91
2022/03/05 00:36:55;;;;;;;24.55;10.55;;;;;;;;;;4967847;28;20034;-87
2022/03/05 00:39:21;;;;;;;23.92;10.82;;;;;;;;;;4973432;28;20112;-87
2022/03/05 00:41:49;;;;;;;22.00;10.15;;;;;;;;;;4974015;28;20023;-88
2022/03/05 00:44:14;;;;;;;24.27;10.93;;;;;;;;;;4978324;28;20046;-87
2022/03/05 00:46:41;;;;;;;24.23;10.90;;;;;;;;;;4986095;28;20023;-89
2022/03/05 00:49:07;;;;;;;23.75;10.18;;;;;;;;;;4967277;28;20038;-88
2022/03/05 00:51:32;;;;;;;23.08;10.77;;;;;;;;;;4973402;28;20418;-88
2022/03/05 00:53:58;;;;;;;21.40;10.10;;;;;;;;;;4973812;28;20444;-86
2022/03/05 00:56:23;;;;;;;25.58;11.13;;;;;;;;;;4970355;28;20081;-90
2022/03/05 00:58:49;;;;;;;22.02;10.25;;;;;;;;;;4987890;28;20033;-91
2022/03/05 01:01:14;;;;;;;23.27;9.63;;;;;;;;;;4972283;28;20031;-87
2022/03/05 01:03:40;;;;;;;21.92;10.35;;;;;;;;;;4987424;28;20383;-88
2022/03/05 01:06:06;;;;;;;23.23;9.82;;;;;;;;;;4985989;28;20065;-90
2022/03/05 01:08:33;;;;;;;26.02;10.70;;;;;;;;;;4975596;28;20138;-89
2022/03/05 01:11:00;;;;;;;24.38;9.57;;;;;;;;;;4973604;28;20109;-87
2022/03/05 01:13:25;;;;;;;24.27;10.52;;;;;;;;;;4975882;28;20023;-86
2022/03/05 01:15:51;;;;;;;22.00;10.65;;;;;;;;;;4971572;28;20507;-87
2022/03/05 01:18:16;;;;;;;22.98;10.18;;;;;;;;;;4967916;28;20476;-86
2022/03/05 01:20:42;;;;;;;23.67;9.98;;;;;;;;;;4972400;28;20034;-86
2022/03/05 01:23:07;;;;;;;24.90;10.48;;;;;;;;;;4972314;28;20053;-87
2022/03/05 01:25:33;;;;;;;25.23;9.75;;;;;;;;;;4968081;28;20031;-90
2022/03/05 01:27:58;;;;;;;24.13;10.02;;;;;;;;;;4984093;28;20481;-89
2022/03/05 01:30:24;;;;;;;26.10;10.77;;;;;;;;;;4987915;28;20482;-87
2022/03/05 01:32:49;;;;;;;23.27;10.20;;;;;;;;;;4974174;28;20039;-88
2022/03/05 01:35:15;;;;;;;25.25;11.95;;;;;;;;;;4976420;28;20038;-87
2022/03/05 01:37:41;;;;;;;23.33;10.23;;;;;;;;;;4965645;28;20031;-90
2022/03/05 01:40:09;;;;;;;23.52;10.10;;;;;;;;;;4971137;28;20480;-88
2022/03/05 01:42:35;;;;;;;21.88;9.65;;;;;;;;;;4974775;28;20401;-91
2022/03/05 01:45:04;;;;;;;21.60;10.48;;;;;;;;;;4971944;28;20023;-91
2022/03/05 01:47:30;;;;;;;22.70;10.48;;;;;;;;;;4982347;28;20047;-90
2022/03/05 01:49:55;;;;;;;19.35;9.20;;;;;;;;;;4973477;28;20070;-90
2022/03/05 01:52:26;;;;;;;22.60;9.88;;;;;;;;;;4967515;28;20035;-89
2022/03/05 01:54:55;;;;;;;21.25;9.57;;;;;;;;;;4970061;28;20219;-91
2022/03/05 01:57:25;;;;;;;25.20;11.00;;;;;;;;;;4986513;28;20027;-90
2022/03/05 01:59:57;;;;;;;23.70;10.30;;;;;;;;;;4967253;28;20034;-90
2022/03/05 02:02:28;;;;;;;20.25;10.23;;;;;;;;;;4981185;28;20049;-90
2022/03/05 02:04:56;;;;;;;23.63;10.63;;;;;;;;;;4965754;28;20475;-89
2022/03/05 02:07:21;;;;;;;23.83;10.65;;;;;;;;;;4980742;28;20698;-88
2022/03/05 02:09:47;;;;;;;22.33;11.13;;;;;;;;;;4970707;28;20114;-88
2022/03/05 02:12:15;;;;;;;21.40;9.82;;;;;;;;;;4967109;28;20042;-92
2022/03/05 02:14:41;;;;;;;23.50;10.27;;;;;;;;;;4982870;28;20454;-90
2022/03/05 02:17:10;;;;;;;25.23;10.52;;;;;;;;;;4971263;28;20043;-93
2022/03/05 02:19:38;;;;;;;24.00;10.40;;;;;;;;;;4983343;28;20041;-89
2022/03/05 02:22:06;;;;;;;23.35;9.95;;;;;;;;;;4970101;28;20035;-88
2022/03/05 02:24:31;;;;;;;24.73;9.95;;;;;;;;;;4966832;28;20037;-88
2022/03/05 02:26:58;;;;;;;21.33;10.02;;;;;;;;;;4986488;28;20015;-91
2022/03/05 02:29:24;;;;;;;23.35;10.85;;;;;;;;;;4988354;28;20027;-88
2022/03/05 02:31:52;;;;;;;27.25;10.98;;;;;;;;;;4970995;28;20419;-87
2022/03/05 02:34:18;;;;;;;27.75;12.00;;;;;;;;;;4972173;28;20038;-87
2022/03/05 02:36:43;;;;;;;24.17;11.18;;;;;;;;;;4970924;28;20114;-89
2022/03/05 02:39:12;;;;;;;26.77;10.90;;;;;;;;;;4984016;28;20030;-87
2022/03/05 02:41:38;;;;;;;27.15;10.98;;;;;;;;;;4982360;28;20545;-88
2022/03/05 02:44:03;;;;;;;24.48;9.85;;;;;;;;;;4967672;28;20031;-90
2022/03/05 02:46:29;;;;;;;24.38;10.70;;;;;;;;;;4978654;28;20030;-88
2022/03/05 02:48:55;;;;;;;24.33;10.38;;;;;;;;;;4968918;28;20031;-90
2022/03/05 02:51:22;;;;;;;23.55;10.18;;;;;;;;;;4964815;28;20026;-88
2022/03/05 02:53:48;;;;;;;23.80;10.20;;;;;;;;;;4968330;28;20042;-90
2022/03/05 02:56:13;;;;;;;25.02;11.00;;;;;;;;;;4984165;28;20027;-88
2022/03/05 02:58:39;;;;;;;21.35;10.02;;;;;;;;;;4971402;28;20023;-88
2022/03/05 03:01:04;;;;;;;22.80;9.93;;;;;;;;;;4968977;28;20035;-87
2022/03/05 03:03:30;;;;;;;24.65;10.57;;;;;;;;;;4971693;28;20075;-90
2022/03/05 03:05:56;;;;;;;22.83;10.38;;;;;;;;;;4964382;28;20039;-88
2022/03/05 03:08:23;;;;;;;23.25;10.50;;;;;;;;;;4981423;28;20469;-88
2022/03/05 03:10:49;;;;;;;23.67;9.77;;;;;;;;;;4972168;28;20035;-90
2022/03/05 03:13:17;;;;;;;21.67;9.68;;;;;;;;;;4982394;28;20053;-87
2022/03/05 03:15:42;;;;;;;21.10;10.32;;;;;;;;;;4984663;28;20039;-90
2022/03/05 03:18:08;;;;;;;24.05;10.15;;;;;;;;;;4983338;28;20053;-88
2022/03/05 03:20:34;;;;;;;24.20;10.38;;;;;;;;;;4983644;28;20089;-89
2022/03/05 03:23:02;;;;;;;21.75;9.88;;;;;;;;;;4981347;28;20113;-88
2022/03/05 03:25:28;;;;;;;22.05;9.73;;;;;;;;;;4986039;28;20030;-89
2022/03/05 03:27:53;;;;;;;23.20;10.63;;;;;;;;;;4985760;28;20117;-86
2022/03/05 03:30:19;;;;;;;22.40;10.93;;;;;;;;;;4963898;28;20030;-87
2022/03/05 03:32:45;;;;;;;24.70;11.20;;;;;;;;;;4986912;28;20031;-87
2022/03/05 03:35:12;;;;;;;22.58;10.77;;;;;;;;;;4988291;28;20027;-88
2022/03/05 03:37:38;;;;;;;22.17;9.98;;;;;;;;;;4976252;28;20027;-88
2022/03/05 03:40:07;;;;;;;25.73;10.75;;;;;;;;;;4994809;28;20058;-86
2022/03/05 03:42:34;;;;;;;21.75;10.52;;;;;;;;;;4987015;28;20069;-88
2022/03/05 03:44:59;;;;;;;25.23;11.90;;;;;;;;;;4969786;28;20550;-88
2022/03/05 03:47:25;;;;;;;21.75;9.90;;;;;;;;;;4989178;28;20061;-89
2022/03/05 03:49:50;;;;;;;23.15;10.35;;;;;;;;;;4973099;28;20419;-87
2022/03/05 03:52:16;;;;;;;22.77;10.82;;;;;;;;;;4974223;28;20089;-88
2022/03/05 03:54:44;;;;;;;20.65;9.80;;;;;;;;;;4973825;28;20515;-88
2022/03/05 03:57:09;;;;;;;23.83;10.60;;;;;;;;;;4986565;28;20090;-90
2022/03/05 03:59:35;;;;;;;23.88;10.63;;;;;;;;;;4970636;28;20027;-87
2022/03/05 04:02:04;;;;;;;22.05;11.45;;;;;;;;;;4973547;28;20121;-87
2022/03/05 04:04:30;;;;;;;27.45;10.65;;;;;;;;;;4983814;28;20035;-88
2022/03/05 04:09:40;;;;;;;23.23;10.13;;;;;;;;;;4970590;28;20053;-89
2022/03/05 04:12:06;;;;;;;24.35;10.57;;;;;;;;;;4988575;28;20026;-89
2022/03/05 04:14:31;;;;;;;21.33;10.57;;;;;;;;;;4983712;28;20026;-88
2022/03/05 04:17:00;;;;;;;24.02;10.27;;;;;;;;;;4989952;28;20405;-88
2022/03/05 04:19:26;;;;;;;23.27;10.48;;;;;;;;;;4974949;28;20035;-89
2022/03/05 04:21:51;;;;;;;26.05;10.98;;;;;;;;;;4987861;28;20387;-87
2022/03/05 04:24:17;;;;;;;22.67;9.98;;;;;;;;;;4985395;28;20026;-88
2022/03/05 04:26:42;;;;;;;23.83;10.52;;;;;;;;;;4970978;28;20030;-87
2022/03/05 04:29:09;;;;;;;23.25;11.57;;;;;;;;;;4972877;28;20392;-90
2022/03/05 04:31:34;;;;;;;27.85;10.82;;;;;;;;;;4986367;28;20027;-87
2022/03/05 04:34:00;;;;;;;22.05;10.63;;;;;;;;;;4986817;28;20053;-89
2022/03/05 04:36:25;;;;;;;23.92;11.25;;;;;;;;;;4968378;28;20507;-89
2022/03/05 04:38:51;;;;;;;24.70;11.05;;;;;;;;;;4989850;28;20081;-87
2022/03/05 04:41:17;;;;;;;24.35;10.95;;;;;;;;;;4968179;28;20558;-89
2022/03/05 04:43:43;;;;;;;25.80;10.57;;;;;;;;;;4974075;28;20415;-88
2022/03/05 04:46:08;;;;;;;21.85;10.52;;;;;;;;;;4985117;28;20050;-88
2022/03/05 04:48:34;;;;;;;25.25;11.13;;;;;;;;;;4973170;28;20034;-89
2022/03/05 04:51:00;;;;;;;24.98;11.40;;;;;;;;;;4973484;28;20038;-88
2022/03/05 04:53:26;;;;;;;27.35;11.60;;;;;;;;;;4971069;28;20031;-88
2022/03/05 04:55:52;;;;;;;25.92;10.82;;;;;;;;;;4984162;28;20113;-88
2022/03/05 04:58:18;;;;;;;22.52;10.43;;;;;;;;;;4970709;28;20031;-88
2022/03/05 05:00:43;;;;;;;23.02;10.52;;;;;;;;;;4986993;28;20384;-88
2022/03/05 05:03:09;;;;;;;27.25;11.52;;;;;;;;;;4972178;28;20037;-88
2022/03/05 05:05:35;;;;;;;28.58;12.15;;;;;;;;;;4972300;28;20030;-88
2022/03/05 05:08:00;;;;;;;27.02;11.68;;;;;;;;;;4991121;28;20026;-88
2022/03/05 05:10:26;;;;;;;29.15;12.48;;;;;;;;;;4973622;28;20037;-88
2022/03/05 05:12:51;;;;;;;27.13;11.70;;;;;;;;;;4979681;28;20195;-90
2022/03/05 05:15:17;;;;;;;28.38;12.45;;;;;;;;;;4968870;28;20046;-88
2022/03/05 05:17:42;;;;;;;27.23;11.68;;;;;;;;;;4970514;28;20058;-88
2022/03/05 05:20:09;;;;;;;30.20;12.38;;;;;;;;;;4971579;28;20145;-88
2022/03/05 05:22:35;;;;;;;27.50;12.55;;;;;;;;;;4971067;28;20391;-88
2022/03/05 05:25:00;;;;;;;29.60;12.48;;;;;;;;;;4969071;28;20025;-88
2022/03/05 05:27:28;;;;;;;29.25;12.70;;;;;;;;;;4983906;28;20161;-88
2022/03/05 05:29:54;;;;;;;29.88;12.73;;;;;;;;;;4968413;28;20027;-88
2022/03/05 05:32:20;;;;;;;26.50;12.18;;;;;;;;;;4968393;28;20027;-88
2022/03/05 05:34:48;;;;;;;28.83;11.85;;;;;;;;;;4963968;28;20518;-90
2022/03/05 05:37:13;;;;;;;30.15;12.75;;;;;;;;;;4963807;28;20075;-90
2022/03/05 05:39:40;;;;;;;25.65;11.48;;;;;;;;;;4972908;28;20141;-86
2022/03/05 05:42:06;;;;;;;27.60;11.93;;;;;;;;;;4972679;28;20178;-88
2022/03/05 05:44:31;;;;;;;29.17;12.68;;;;;;;;;;4974775;28;20110;-87
2022/03/05 05:46:59;;;;;;;30.15;13.23;;;;;;;;;;4986481;28;20025;-88
2022/03/05 05:49:24;;;;;;;32.42;13.00;;;;;;;;;;4983027;28;20038;-90
2022/03/05 05:51:50;;;;;;;28.80;11.82;;;;;;;;;;4969755;28;20031;-89
2022/03/05 05:54:15;;;;;;;28.92;12.55;;;;;;;;;;4985702;28;20035;-87
2022/03/05 05:56:41;;;;;;;29.75;13.02;;;;;;;;;;4971949;28;20050;-90
2022/03/05 05:59:07;;;;;;;31.63;13.50;;;;;;;;;;4971978;28;20034;-88
2022/03/05 06:01:32;;;;;;;29.98;13.25;;;;;;;;;;4971816;28;20061;-89
2022/03/05 06:03:58;;;;;;;33.90;14.50;;;;;;;;;;4986636;28;20037;-90
2022/03/05 06:06:23;;;;;;;30.20;12.75;;;;;;;;;;4966175;28;20031;-90
2022/03/05 06:08:49;;;;;;;29.10;12.68;;;;;;;;;;4971803;28;20022;-88
2022/03/05 06:11:15;;;;;;;30.15;13.73;;;;;;;;;;4969333;28;20459;-88
2022/03/05 06:13:40;;;;;;;31.40;13.02;;;;;;;;;;4968634;28;20027;-87
2022/03/05 06:16:06;;;;;;;29.17;12.57;;;;;;;;;;4971324;28;20034;-87
2022/03/05 06:18:32;;;;;;;30.90;13.45;;;;;;;;;;4964800;28;20038;-88
2022/03/05 06:20:57;;;;;;;27.73;11.45;;;;;;;;;;4972921;28;20134;-86
2022/03/05 06:23:23;;;;;;;29.45;12.35;;;;;;;;;;4965528;28;20026;-87
2022/03/05 06:25:50;;;;;;;30.02;12.85;;;;;;;;;;4981054;28;20395;-87
2022/03/05 06:28:16;;;;;;;28.92;12.57;;;;;;;;;;4970289;28;20065;-87
2022/03/05 06:30:41;;;;;;;31.00;13.35;;;;;;;;;;4971181;28;20030;-87
2022/03/05 06:33:06;;;;;;;27.55;12.32;;;;;;;;;;4972931;28;20070;-86
2022/03/05 06:35:32;;;;;;;26.33;12.13;;;;;;;;;;4966963;28;20105;-86
2022/03/05 06:37:57;;;;;;;28.15;11.43;;;;;;;;;;4970636;28;20432;-87
2022/03/05 06:40:23;;;;;;;36.45;13.27;;;;;;;;;;4970552;28;20023;-85
2022/03/05 06:42:48;;;;;;;35.15;13.70;;;;;;;;;;4972876;28;20089;-87
2022/03/05 06:45:13;;;;;;;28.27;12.38;;;;;;;;;;4967391;28;20043;-85
2022/03/05 06:47:39;;;;;;;34.40;12.57;;;;;;;;;;4960054;28;20035;-87
2022/03/05 06:50:08;;;;;;;30.25;12.32;;;;;;;;;;4975501;28;20058;-87
2022/03/05 06:52:33;;;;;;;33.90;12.70;;;;;;;;;;4961757;28;20031;-86
2022/03/05 06:54:59;;;;;;;29.60;12.20;;;;;;;;;;4974061;28;20094;-86
2022/03/05 06:57:26;;;;;;;28.73;11.93;;;;;;;;;;4963941;28;20035;-85
2022/03/05 07:00:20;;;;;;;31.90;13.27;;;;;;;;;;4964036;28;20081;-86
2022/03/05 07:02:46;;;;;;;34.53;13.68;;;;;;;;;;4954594;28;20049;-86
2022/03/05 07:05:13;;;;;;;29.45;11.70;;;;;;;;;;4963398;28;21176;-85
2022/03/05 07:07:38;;;;;;;28.52;12.15;;;;;;;;;;4973843;28;20031;-85
2022/03/05 07:10:05;;;;;;;33.55;13.85;;;;;;;;;;4966963;28;20863;-87
2022/03/05 07:12:30;;;;;;;32.97;13.57;;;;;;;;;;4969675;28;20029;-85
2022/03/05 07:14:56;;;;;;;32.20;13.30;;;;;;;;;;4985561;28;20109;-85
2022/03/05 07:17:21;;;;;;;34.53;14.07;;;;;;;;;;4975678;28;20041;-84
2022/03/05 07:19:46;;;;;;;32.88;12.90;;;;;;;;;;4973694;28;20041;-85
2022/03/05 07:22:12;;;;;;;27.05;12.10;;;;;;;;;;4974224;28;20387;-86
2022/03/05 07:24:37;;;;;;;33.22;13.23;;;;;;;;;;4974358;28;20073;-86
2022/03/05 07:27:03;;;;;;;32.47;13.07;;;;;;;;;;4970166;28;20023;-87
2022/03/05 07:29:29;;;;;;;34.13;13.43;;;;;;;;;;4973677;28;20023;-85
2022/03/05 07:31:54;;;;;;;30.38;13.65;;;;;;;;;;4972740;28;20081;-86
2022/03/05 07:34:19;;;;;;;30.55;12.98;;;;;;;;;;4972196;28;20023;-85
2022/03/05 07:36:45;;;;;;;33.45;12.63;;;;;;;;;;4972736;28;20137;-86
2022/03/05 07:39:10;;;;;;;32.25;13.40;;;;;;;;;;4975800;28;20037;-87
2022/03/05 07:41:37;;;;;;;32.83;13.55;;;;;;;;;;4987809;28;20027;-87
2022/03/05 07:44:04;;;;;;;33.00;13.95;;;;;;;;;;4973361;28;20499;-85
2022/03/05 07:46:29;;;;;;;33.60;13.07;;;;;;;;;;4986948;28;20023;-86
2022/03/05 07:48:55;;;;;;;34.05;14.25;;;;;;;;;;4968658;28;20078;-85
2022/03/05 07:51:20;;;;;;;33.22;12.98;;;;;;;;;;4973524;28;20034;-85
2022/03/05 07:53:46;;;;;;;32.40;13.43;;;;;;;;;;4986990;28;20122;-87
2022/03/05 07:56:11;;;;;;;37.10;14.38;;;;;;;;;;4970193;28;20042;-87
2022/03/05 07:58:36;;;;;;;33.80;14.68;;;;;;;;;;4974198;28;20026;-88
2022/03/05 08:01:02;;;;;;;34.63;12.98;;;;;;;;;;4970505;28;20055;-87
2022/03/05 08:03:27;;;;;;;37.45;14.25;;;;;;;;;;4971883;28;20078;-85
2022/03/05 08:05:53;;;;;;;37.92;15.32;;;;;;;;;;4972818;28;20491;-85
2022/03/05 08:08:19;;;;;;;33.03;14.02;;;;;;;;;;4977347;28;20113;-86
2022/03/05 08:10:44;;;;;;;33.97;13.93;;;;;;;;;;4989251;28;20045;-85
2022/03/05 08:13:10;;;;;;;42.28;14.98;;;;;;;;;;4974023;28;20038;-85
2022/03/05 08:15:35;;;;;;;38.35;14.20;;;;;;;;;;4971660;28;20122;-84
2022/03/05 08:18:01;;;;;;;35.92;14.30;;;;;;;;;;4975556;28;20015;-85
2022/03/05 08:20:29;;;;;;;35.30;14.25;;;;;;;;;;4977213;28;20041;-85
2022/03/05 08:22:54;;;;;;;36.83;14.23;;;;;;;;;;4976158;28;20034;-85
2022/03/05 08:25:20;;;;;;;37.30;14.95;;;;;;;;;;4980385;28;20025;-85
2022/03/05 08:27:46;;;;;;;37.17;14.60;;;;;;;;;;4988121;28;20015;-85
2022/03/05 08:30:12;;;;;;;37.50;14.88;;;;;;;;;;4975409;28;20031;-86
2022/03/05 08:32:38;;;;;;;32.03;13.45;;;;;;;;;;4974196;28;20026;-86
2022/03/05 08:35:05;;;;;;;35.10;14.55;;;;;;;;;;4986318;28;20029;-85
2022/03/05 08:37:31;;;;;;;36.13;14.38;;;;;;;;;;4973374;28;20503;-85
2022/03/05 08:39:57;;;;;;;37.50;14.90;;;;;;;;;;4986061;28;20077;-84
2022/03/05 08:42:23;;;;;;;37.03;14.23;;;;;;;;;;4972344;28;20031;-85
2022/03/05 08:44:48;;;;;;;34.20;13.52;;;;;;;;;;4970616;28;20034;-84
2022/03/05 08:47:14;;;;;;;35.72;14.43;;;;;;;;;;4988374;28;20037;-89
2022/03/05 08:49:42;;;;;;;38.30;15.07;;;;;;;;;;4989138;28;20038;-90
2022/03/05 08:52:08;;;;;;;35.88;14.23;;;;;;;;;;4980095;28;20035;-88
2022/03/05 08:54:34;;;;;;;33.45;14.45;;;;;;;;;;4971095;28;20034;-87
2022/03/05 08:57:04;;;;;;;38.17;14.32;;;;;;;;;;4984730;28;20035;-86
2022/03/05 08:59:35;;;;;;;35.72;14.60;;;;;;;;;;4967599;28;20042;-89
2022/03/05 09:02:07;;;;;;;37.13;14.75;;;;;;;;;;4985945;28;20384;-87
2022/03/05 09:07:35;;;;;;;34.28;15.10;;;;;;;;;;4969692;28;20117;-86
2022/03/05 09:10:16;;;;;;;38.58;14.35;;;;;;;;;;4974733;28;20056;-90
2022/03/05 09:13:06;;;;;;;39.92;15.27;;;;;;;;;;4969565;28;20403;-87
2022/03/05 09:15:38;;;;;;;36.63;14.80;;;;;;;;;;4973060;28;20027;-87
2022/03/05 09:18:07;;;;;;;;;;;;;;;;;;4979344;28;20077;-88
2022/03/05 09:20:36;;;;;;;36.00;13.32;;;;;;;;;;4984623;28;19922;-87
2022/03/05 09:23:08;;;;;;;33.67;14.80;;;;;;;;;;4983910;28;20026;-88
2022/03/05 09:25:37;;;;;;;31.80;14.73;;;;;;;;;;4968070;28;20561;-88
2022/03/05 09:28:08;;;;;;;31.30;14.23;;;;;;;;;;4973474;28;20542;-87
2022/03/05 09:30:39;;;;;;;34.45;14.68;;;;;;;;;;4968295;28;20022;-87
2022/03/05 09:33:11;;;;;;;35.88;15.20;;;;;;;;;;4963140;28;20041;-87
2022/03/05 09:35:41;;;;;;;33.30;15.53;;;;;;;;;;4971211;28;20070;-87
2022/03/05 09:38:09;;;;;;;35.83;15.05;;;;;;;;;;4976890;28;20039;-88
2022/03/05 09:40:40;;;;;;;37.45;15.65;;;;;;;;;;4969843;28;20503;-87
2022/03/05 09:43:15;;;;;;;36.75;15.40;;;;;;;;;;4973176;28;20027;-88
2022/03/05 09:45:43;;;;;;;35.72;16.15;;;;;;;;;;4972913;28;20022;-88
2022/03/05 09:48:11;;;;;;;42.63;17.00;;;;;;;;;;4973102;28;20415;-87
2022/03/05 09:53:44;;;;;;;36.80;14.95;;;;;;;;;;4969551;28;20033;-87
2022/03/05 09:56:12;;;;;;;36.47;14.95;;;;;;;;;;4973402;28;20027;-86
2022/03/05 09:58:44;;;;;;;35.95;15.20;;;;;;;;;;4974626;28;20095;-87
2022/03/05 10:01:13;;;;;;;34.83;15.35;;;;;;;;;;4975037;28;20026;-87
2022/03/05 10:03:46;;;;;;;33.03;14.38;;;;;;;;;;4975951;28;20050;-87
2022/03/05 10:06:17;;;;;;;36.53;15.27;;;;;;;;;;4972042;28;20031;-86
2022/03/05 10:08:47;;;;;;;33.42;15.13;;;;;;;;;;4972592;28;20026;-86
2022/03/05 10:11:16;;;;;;;31.90;14.50;;;;;;;;;;4954693;28;20031;-88
2022/03/05 10:13:45;;;;;;;34.85;15.38;;;;;;;;;;4972007;28;20374;-89
2022/03/05 10:16:46;;;;;;;38.60;16.08;;;;;;;;;;4985007;28;20030;-88
2022/03/05 10:22:19;;;;;;;32.67;15.40;;;;;;;;;;4968460;28;20077;-88
2022/03/05 10:24:47;;;;;;;;;;;;;;;;;;4989242;28;20030;-89
2022/03/05 10:27:18;;;;;;;35.97;14.13;;;;;;;;;;4989794;28;19965;-91
2022/03/05 10:33:41;;;;;;;33.83;15.70;;;;;;;;;;4989443;28;20026;-89
2022/03/05 10:36:22;;;;;;;35.47;15.60;;;;;;;;;;4985818;28;20077;-89
2022/03/05 10:38:52;;;;;;;38.50;16.58;;;;;;;;;;4992680;28;20482;-91
2022/03/05 10:41:22;;;;;;;35.38;16.17;;;;;;;;;;4970848;28;20166;-85
2022/03/05 10:44:23;;;;;;;34.80;15.77;;;;;;;;;;4987399;28;20035;-86
2022/03/05 10:47:21;;;;;;;33.10;15.85;;;;;;;;;;4951224;28;20042;-85
2022/03/05 10:49:51;;;;;;;32.55;15.43;;;;;;;;;;4968348;28;20089;-89
2022/03/05 10:52:20;;;;;;;33.83;15.95;;;;;;;;;;4968054;28;20547;-85
2022/03/05 10:54:51;;;;;;;36.63;16.08;;;;;;;;;;4981492;28;20019;-85
2022/03/05 10:57:23;;;;;;;33.67;15.27;;;;;;;;;;4973900;28;20030;-91
2022/03/05 11:00:07;;;;;;;33.22;16.10;;;;;;;;;;4972371;28;20031;-89
2022/03/05 11:02:34;;;;;;;33.17;15.57;;;;;;;;;;4971669;28;20039;-84
2022/03/05 11:05:01;;;;;;;33.80;15.98;;;;;;;;;;4965576;28;20027;-88
2022/03/05 11:07:27;;;;;;;36.28;16.15;;;;;;;;;;4972244;28;20031;-87
2022/03/05 11:09:57;;;;;;;33.33;16.13;;;;;;;;;;4980630;28;20027;-91
2022/03/05 11:12:29;;;;;;;34.35;16.45;;;;;;;;;;4969483;28;20451;-88
2022/03/05 11:14:54;;;;;;;35.60;16.13;;;;;;;;;;4966604;28;20034;-85
2022/03/05 11:17:25;;;;;;;33.70;16.10;;;;;;;;;;4974639;28;20031;-84
2022/03/05 11:19:57;;;;;;;34.03;15.68;;;;;;;;;;4974892;28;20101;-85
2022/03/05 11:22:23;;;;;;;37.72;16.42;;;;;;;;;;4971029;28;20034;-85
2022/03/05 11:24:54;;;;;;;35.78;16.60;;;;;;;;;;4974414;28;20039;-90
2022/03/05 11:27:20;;;;;;;36.78;17.15;;;;;;;;;;4973626;28;20038;-89
2022/03/05 11:30:00;;;;;;;34.80;15.60;;;;;;;;;;4969493;28;20035;-85
2022/03/05 11:32:49;;;;;;;35.40;15.98;;;;;;;;;;4978596;28;20034;-91
2022/03/05 11:35:59;;;;;;;30.48;15.10;;;;;;;;;;4971431;28;20086;-90
2022/03/05 11:38:32;;;;;;;33.22;15.38;;;;;;;;;;4964660;28;20125;-90
2022/03/05 11:41:07;;;;;;;;;;;;;;;;;;4970628;28;20025;-91
2022/03/05 11:44:28;;;;;;;33.90;14.93;;;;;;;;;;4980910;28;19917;-91
2022/03/05 11:47:19;;;;;;;34.05;15.10;;;;;;;;;;4985697;28;20034;-85
2022/03/05 11:49:59;;;;;;;34.17;15.52;;;;;;;;;;4976361;28;20036;-91
2022/03/05 11:52:43;;;;;;;36.10;16.90;;;;;;;;;;4974569;28;20488;-84
2022/03/05 11:55:41;;;;;;;35.25;16.30;;;;;;;;;;4972274;28;20034;-90
2022/03/05 11:58:33;;;;;;;31.73;15.52;;;;;;;;;;4970194;28;20034;-88
2022/03/05 12:01:33;;;;;;;35.08;17.00;;;;;;;;;;4975016;28;20015;-93
2022/03/05 12:04:03;;;;;;;37.25;16.25;;;;;;;;;;4983409;28;20023;-84
2022/03/05 12:06:42;;;;;;;34.60;16.15;;;;;;;;;;4980063;28;20038;-88
2022/03/05 12:09:32;;;;;;;36.75;16.10;;;;;;;;;;4985293;28;20105;-87
2022/03/05 12:11:57;;;;;;;35.53;15.93;;;;;;;;;;4976678;28;20117;-88
2022/03/05 12:14:22;;;;;;;34.25;15.30;;;;;;;;;;4978241;28;20124;-86
2022/03/05 12:16:48;;;;;;;35.42;16.23;;;;;;;;;;4964934;28;20023;-85
2022/03/05 12:19:15;;;;;;;33.47;15.68;;;;;;;;;;4981591;28;20061;-85
2022/03/05 12:21:40;;;;;;;32.63;16.08;;;;;;;;;;4990148;28;20019;-83
2022/03/05 12:24:09;;;;;;;31.88;15.77;;;;;;;;;;4983245;28;20035;-84
2022/03/05 12:26:40;;;;;;;31.95;16.02;;;;;;;;;;4977378;28;20059;-86
2022/03/05 12:29:07;;;;;;;33.53;15.82;;;;;;;;;;4978658;28;20034;-83
2022/03/05 12:31:51;;;;;;;32.88;15.65;;;;;;;;;;4980913;28;20403;-82
2022/03/05 12:34:22;;;;;;;30.88;15.02;;;;;;;;;;4977523;28;20038;-85
2022/03/05 12:36:48;;;;;;;28.75;14.85;;;;;;;;;;4984019;28;20054;-85
2022/03/05 12:39:14;;;;;;;32.28;16.23;;;;;;;;;;4968140;28;20035;-85
2022/03/05 12:41:43;;;;;;;31.75;15.73;;;;;;;;;;4973851;28;20026;-84
2022/03/05 12:44:11;;;;;;;35.00;15.93;;;;;;;;;;4992009;28;20046;-81
2022/03/05 12:46:37;;;;;;;31.83;15.40;;;;;;;;;;4988924;28;20077;-86
2022/03/05 12:49:06;;;;;;;31.88;14.73;;;;;;;;;;4964212;28;20027;-86
2022/03/05 12:51:32;;;;;;;32.63;15.02;;;;;;;;;;4976130;28;20388;-81
2022/03/05 12:53:59;;;;;;;30.70;14.75;;;;;;;;;;4975372;28;20030;-83
2022/03/05 12:56:25;;;;;;;30.45;15.23;;;;;;;;;;4976590;28;20037;-82
2022/03/05 12:58:55;;;;;;;35.45;15.80;;;;;;;;;;4982849;28;20034;-83
2022/03/05 13:01:21;;;;;;;29.20;14.25;;;;;;;;;;4970263;28;20027;-87
2022/03/05 13:03:46;;;;;;;27.15;14.20;;;;;;;;;;4983794;28;20034;-81
2022/03/05 13:06:11;;;;;;;29.60;15.93;;;;;;;;;;4971405;28;20110;-82
2022/03/05 13:08:39;;;;;;;31.33;15.27;;;;;;;;;;4967606;28;20023;-84
2022/03/05 13:11:19;;;;;;;30.08;15.30;;;;;;;;;;4974183;28;20033;-87
2022/03/05 13:13:46;;;;;;;32.63;14.85;;;;;;;;;;4976559;28;20030;-84
2022/03/05 13:16:20;;;;;;;31.27;14.52;;;;;;;;;;4982324;28;20030;-83
2022/03/05 13:18:56;;;;;;;30.52;15.20;;;;;;;;;;4973528;28;20021;-82
2022/03/05 13:21:21;;;;;;;27.13;14.85;;;;;;;;;;4972664;28;20042;-82
2022/03/05 13:23:47;;;;;;;31.30;15.07;;;;;;;;;;4962650;28;20023;-82
2022/03/05 13:26:12;;;;;;;30.48;15.57;;;;;;;;;;4978365;28;20041;-82
2022/03/05 13:28:38;;;;;;;30.98;15.10;;;;;;;;;;4973952;28;20037;-82
2022/03/05 13:31:04;;;;;;;37.58;16.48;;;;;;;;;;4969418;28;20030;-82
2022/03/05 13:33:38;;;;;;;29.63;14.80;;;;;;;;;;4975882;28;20554;-85
2022/03/05 13:36:34;;;;;;;34.15;15.80;;;;;;;;;;4967950;28;20137;-86
2022/03/05 13:39:18;;;;;;;30.92;15.10;;;;;;;;;;4961629;28;20846;-87
2022/03/05 13:41:55;;;;;;;29.00;16.05;;;;;;;;;;4963907;28;20038;-82
2022/03/05 13:44:41;;;;;;;29.92;15.15;;;;;;;;;;4982127;28;20051;-86
2022/03/05 13:47:08;;;;;;;27.63;14.90;;;;;;;;;;4971128;28;20403;-83
2022/03/05 13:49:35;;;;;;;35.05;15.50;;;;;;;;;;4962468;28;20031;-83
2022/03/05 13:52:03;;;;;;;28.77;15.02;;;;;;;;;;4967125;28;20039;-82
2022/03/05 13:54:48;;;;;;;30.77;15.00;;;;;;;;;;4977601;28;20053;-85
2022/03/05 13:57:27;;;;;;;29.88;14.68;;;;;;;;;;4991026;28;20034;-84
2022/03/05 13:59:52;;;;;;;30.42;15.45;;;;;;;;;;4969804;28;20029;-85
2022/03/05 14:05:28;;;;;;;31.08;15.50;;;;;;;;;;4972788;28;20053;-85
2022/03/05 14:07:59;;;;;;;34.58;16.10;;;;;;;;;;4968345;28;20138;-84
2022/03/05 14:10:25;;;;;;;30.85;15.50;;;;;;;;;;4977168;28;20085;-84
2022/03/05 14:13:05;;;;;;;35.55;16.30;;;;;;;;;;4965464;28;20059;-84
2022/03/05 14:15:42;;;;;;;;;;;;;;;;;;;;;
2022/03/05 14:18:56;;;;;;;32.38;15.77;;;;;;;;;;4970285;28;20521;-84
2022/03/05 14:21:24;;;;;;;35.65;16.30;;;;;;;;;;4912018;29;20275;-83
2022/03/05 14:23:56;;;;;;;33.92;17.05;;;;;;;;;;4902207;29;20513;-84
2022/03/05 14:26:32;;;;;;;33.35;16.10;;;;;;;;;;4973814;28;20097;-82
2022/03/05 14:28:57;;;;;;;33.03;15.77;;;;;;;;;;4982406;28;20064;-83
2022/03/05 14:31:25;;;;;;;32.05;15.77;;;;;;;;;;4982360;28;20490;-84
2022/03/05 14:33:58;;;;;;;31.52;15.73;;;;;;;;;;4977434;28;20037;-85
2022/03/05 14:36:26;;;;;;;30.05;15.07;;;;;;;;;;4969400;28;20093;-82
2022/03/05 14:38:57;;;;;;;31.98;17.17;;;;;;;;;;4969834;28;20026;-86
2022/03/05 14:41:27;;;;;;;34.78;16.40;;;;;;;;;;4974894;28;20184;-83
2022/03/05 14:44:01;;;;;;;30.90;16.33;;;;;;;;;;4982861;28;20026;-82
2022/03/05 14:46:30;;;;;;;30.98;15.52;;;;;;;;;;4964910;28;20499;-86
2022/03/05 14:48:58;;;;;;;33.58;16.02;;;;;;;;;;4966375;28;20027;-87